sensor_id;sensor_type;location;lat;lon;timestamp;P1;durP1;ratioP1;P2;durP2;ratioP2
30707;SDS011;17458;48.958;8.284;2023-03-14T00:01:29;2.25;;;0.95;;
30707;SDS011;17458;48.958;8.284;2023-03-14T00:04:13;2.05;;;1.40;;
30707;SDS011;17458;48.958;8.284;2023-03-14T00:06:58;1.02;;;1.02;;
30707;SDS011;17458;48.958;8.284;2023-03-14T00:09:42;0.82;;;0.82;;
30707;SDS011;17458;48.958;8.284;2023-03-14T00:12:26;1.08;;;0.85;;
30707;SDS011;17458;48.958;8.284;2023-03-14T00:15:11;2.78;;;1.10;;
30707;SDS011;17458;48.958;8.284;2023-03-14T00:17:55;1.55;;;0.90;;
30707;SDS011;17458;48.958;8.284;2023-03-14T00:20:39;1.50;;;1.30;;
30707;SDS011;17458;48.958;8.284;2023-03-14T00:23:24;1.33;;;1.23;;
30707;SDS011;17458;48.958;8.284;2023-03-14T00:26:15;1.35;;;1.25;;
30707;SDS011;17458;48.958;8.284;2023-03-14T00:29:00;1.25;;;1.08;;
30707;SDS011;17458;48.958;8.284;2023-03-14T00:31:47;0.90;;;0.90;;
30707;SDS011;17458;48.958;8.284;2023-03-14T00:34:32;2.58;;;1.15;;
30707;SDS011;17458;48.958;8.284;2023-03-14T00:37:19;1.17;;;1.02;;
30707;SDS011;17458;48.958;8.284;2023-03-14T00:40:04;0.90;;;0.90;;
30707;SDS011;17458;48.958;8.284;2023-03-14T00:42:51;0.93;;;0.93;;
30707;SDS011;17458;48.958;8.284;2023-03-14T00:45:39;1.27;;;1.10;;
30707;SDS011;17458;48.958;8.284;2023-03-14T00:48:23;0.80;;;0.80;;
30707;SDS011;17458;48.958;8.284;2023-03-14T00:51:10;0.90;;;0.90;;
30707;SDS011;17458;48.958;8.284;2023-03-14T00:54:00;1.27;;;1.15;;
30707;SDS011;17458;48.958;8.284;2023-03-14T00:56:44;1.02;;;1.02;;
30707;SDS011;17458;48.958;8.284;2023-03-14T00:59:29;1.00;;;0.90;;
30707;SDS011;17458;48.958;8.284;2023-03-14T01:02:14;0.90;;;0.90;;
30707;SDS011;17458;48.958;8.284;2023-03-14T01:04:58;4.75;;;1.13;;
30707;SDS011;17458;48.958;8.284;2023-03-14T01:07:42;5.35;;;1.77;;
30707;SDS011;17458;48.958;8.284;2023-03-14T01:10:27;2.47;;;1.00;;
30707;SDS011;17458;48.958;8.284;2023-03-14T01:13:13;0.90;;;0.90;;
30707;SDS011;17458;48.958;8.284;2023-03-14T01:16:00;2.42;;;1.20;;
30707;SDS011;17458;48.958;8.284;2023-03-14T01:18:51;3.17;;;1.40;;
30707;SDS011;17458;48.958;8.284;2023-03-14T01:21:36;0.98;;;0.98;;
30707;SDS011;17458;48.958;8.284;2023-03-14T01:24:21;1.10;;;1.00;;
30707;SDS011;17458;48.958;8.284;2023-03-14T01:27:05;2.05;;;1.48;;
30707;SDS011;17458;48.958;8.284;2023-03-14T01:29:56;2.78;;;1.30;;
30707;SDS011;17458;48.958;8.284;2023-03-14T01:32:41;1.33;;;1.17;;
30707;SDS011;17458;48.958;8.284;2023-03-14T01:35:25;1.80;;;1.23;;
30707;SDS011;17458;48.958;8.284;2023-03-14T01:38:09;1.20;;;1.05;;
30707;SDS011;17458;48.958;8.284;2023-03-14T01:40:53;1.80;;;1.40;;
30707;SDS011;17458;48.958;8.284;2023-03-14T01:43:37;3.35;;;1.48;;
30707;SDS011;17458;48.958;8.284;2023-03-14T01:46:24;2.22;;;1.15;;
30707;SDS011;17458;48.958;8.284;2023-03-14T01:49:17;2.80;;;1.30;;
30707;SDS011;17458;48.958;8.284;2023-03-14T01:52:19;3.25;;;1.30;;
30707;SDS011;17458;48.958;8.284;2023-03-14T01:55:28;2.13;;;1.27;;
30707;SDS011;17458;48.958;8.284;2023-03-14T01:58:12;1.40;;;1.20;;
30707;SDS011;17458;48.958;8.284;2023-03-14T02:00:57;2.25;;;1.58;;
30707;SDS011;17458;48.958;8.284;2023-03-14T02:03:56;2.30;;;1.08;;
30707;SDS011;17458;48.958;8.284;2023-03-14T02:06:51;1.33;;;1.23;;
30707;SDS011;17458;48.958;8.284;2023-03-14T02:09:46;1.48;;;1.02;;
30707;SDS011;17458;48.958;8.284;2023-03-14T02:12:38;2.08;;;1.30;;
30707;SDS011;17458;48.958;8.284;2023-03-14T02:15:52;3.78;;;1.40;;
30707;SDS011;17458;48.958;8.284;2023-03-14T02:18:55;1.85;;;1.35;;
30707;SDS011;17458;48.958;8.284;2023-03-14T02:21:57;4.45;;;1.10;;
30707;SDS011;17458;48.958;8.284;2023-03-14T02:25:17;3.03;;;1.00;;
30707;SDS011;17458;48.958;8.284;2023-03-14T02:28:21;3.80;;;1.08;;
30707;SDS011;17458;48.958;8.284;2023-03-14T02:31:10;4.85;;;1.48;;
30707;SDS011;17458;48.958;8.284;2023-03-14T02:33:54;3.80;;;1.52;;
30707;SDS011;17458;48.958;8.284;2023-03-14T02:36:41;4.53;;;1.30;;
30707;SDS011;17458;48.958;8.284;2023-03-14T02:39:27;2.35;;;1.40;;
30707;SDS011;17458;48.958;8.284;2023-03-14T02:42:20;3.20;;;1.38;;
30707;SDS011;17458;48.958;8.284;2023-03-14T02:47:53;1.50;;;1.30;;
30707;SDS011;17458;48.958;8.284;2023-03-14T02:50:42;4.32;;;1.20;;
30707;SDS011;17458;48.958;8.284;2023-03-14T02:53:30;1.38;;;1.27;;
30707;SDS011;17458;48.958;8.284;2023-03-14T02:56:20;1.55;;;1.08;;
30707;SDS011;17458;48.958;8.284;2023-03-14T02:59:05;4.68;;;1.77;;
30707;SDS011;17458;48.958;8.284;2023-03-14T03:01:56;1.50;;;1.23;;
30707;SDS011;17458;48.958;8.284;2023-03-14T03:04:42;1.30;;;1.20;;
30707;SDS011;17458;48.958;8.284;2023-03-14T03:07:26;6.63;;;1.27;;
30707;SDS011;17458;48.958;8.284;2023-03-14T03:10:13;2.53;;;1.13;;
30707;SDS011;17458;48.958;8.284;2023-03-14T03:12:58;1.40;;;1.15;;
30707;SDS011;17458;48.958;8.284;2023-03-14T03:15:44;3.92;;;1.80;;
30707;SDS011;17458;48.958;8.284;2023-03-14T03:18:29;3.13;;;1.70;;
30707;SDS011;17458;48.958;8.284;2023-03-14T03:21:14;2.35;;;1.30;;
30707;SDS011;17458;48.958;8.284;2023-03-14T03:24:00;1.70;;;1.10;;
30707;SDS011;17458;48.958;8.284;2023-03-14T03:26:45;2.38;;;1.25;;
30707;SDS011;17458;48.958;8.284;2023-03-14T03:29:29;2.60;;;1.63;;
30707;SDS011;17458;48.958;8.284;2023-03-14T03:32:14;3.85;;;1.40;;
30707;SDS011;17458;48.958;8.284;2023-03-14T03:34:59;2.58;;;1.33;;
30707;SDS011;17458;48.958;8.284;2023-03-14T03:37:43;5.72;;;1.98;;
30707;SDS011;17458;48.958;8.284;2023-03-14T03:40:27;1.63;;;1.10;;
30707;SDS011;17458;48.958;8.284;2023-03-14T03:43:12;2.60;;;1.38;;
30707;SDS011;17458;48.958;8.284;2023-03-14T03:46:03;1.52;;;1.33;;
30707;SDS011;17458;48.958;8.284;2023-03-14T03:48:53;2.25;;;1.20;;
30707;SDS011;17458;48.958;8.284;2023-03-14T03:51:41;2.78;;;1.63;;
30707;SDS011;17458;48.958;8.284;2023-03-14T03:54:26;2.45;;;1.40;;
30707;SDS011;17458;48.958;8.284;2023-03-14T03:57:12;10.02;;;2.00;;
30707;SDS011;17458;48.958;8.284;2023-03-14T03:59:56;5.15;;;1.40;;
30707;SDS011;17458;48.958;8.284;2023-03-14T04:02:41;4.95;;;1.40;;
30707;SDS011;17458;48.958;8.284;2023-03-14T04:05:28;3.40;;;1.50;;
30707;SDS011;17458;48.958;8.284;2023-03-14T04:08:18;3.85;;;1.83;;
30707;SDS011;17458;48.958;8.284;2023-03-14T04:11:02;6.78;;;1.75;;
30707;SDS011;17458;48.958;8.284;2023-03-14T04:14:08;5.97;;;1.67;;
30707;SDS011;17458;48.958;8.284;2023-03-14T04:16:53;3.20;;;1.50;;
30707;SDS011;17458;48.958;8.284;2023-03-14T04:19:38;6.05;;;1.50;;
30707;SDS011;17458;48.958;8.284;2023-03-14T04:22:26;3.33;;;1.15;;
30707;SDS011;17458;48.958;8.284;2023-03-14T04:25:14;2.72;;;1.30;;
30707;SDS011;17458;48.958;8.284;2023-03-14T04:28:08;9.80;;;2.75;;
30707;SDS011;17458;48.958;8.284;2023-03-14T04:30:55;4.43;;;1.60;;
30707;SDS011;17458;48.958;8.284;2023-03-14T04:33:42;7.13;;;1.50;;
30707;SDS011;17458;48.958;8.284;2023-03-14T04:36:27;8.50;;;1.60;;
30707;SDS011;17458;48.958;8.284;2023-03-14T04:39:11;3.58;;;1.88;;
30707;SDS011;17458;48.958;8.284;2023-03-14T04:42:02;6.53;;;1.67;;
30707;SDS011;17458;48.958;8.284;2023-03-14T04:44:47;5.50;;;1.63;;
30707;SDS011;17458;48.958;8.284;2023-03-14T04:47:34;6.20;;;1.50;;
30707;SDS011;17458;48.958;8.284;2023-03-14T04:50:20;4.45;;;1.27;;
30707;SDS011;17458;48.958;8.284;2023-03-14T04:53:05;2.55;;;1.38;;
30707;SDS011;17458;48.958;8.284;2023-03-14T04:55:51;4.18;;;1.58;;
30707;SDS011;17458;48.958;8.284;2023-03-14T04:58:37;7.43;;;2.20;;
30707;SDS011;17458;48.958;8.284;2023-03-14T05:01:23;2.50;;;1.17;;
30707;SDS011;17458;48.958;8.284;2023-03-14T05:04:21;4.68;;;1.30;;
30707;SDS011;17458;48.958;8.284;2023-03-14T05:07:13;2.50;;;1.40;;
30707;SDS011;17458;48.958;8.284;2023-03-14T05:10:12;2.78;;;1.38;;
30707;SDS011;17458;48.958;8.284;2023-03-14T05:13:11;2.25;;;1.58;;
30707;SDS011;17458;48.958;8.284;2023-03-14T05:16:11;3.83;;;1.48;;
30707;SDS011;17458;48.958;8.284;2023-03-14T05:19:21;3.92;;;1.35;;
30707;SDS011;17458;48.958;8.284;2023-03-14T05:22:27;4.68;;;1.55;;
30707;SDS011;17458;48.958;8.284;2023-03-14T05:25:42;2.35;;;1.35;;
30707;SDS011;17458;48.958;8.284;2023-03-14T05:28:47;1.67;;;1.30;;
30707;SDS011;17458;48.958;8.284;2023-03-14T05:32:07;2.40;;;1.40;;
30707;SDS011;17458;48.958;8.284;2023-03-14T05:35:10;2.65;;;1.33;;
30707;SDS011;17458;48.958;8.284;2023-03-14T05:38:17;4.50;;;1.60;;
30707;SDS011;17458;48.958;8.284;2023-03-14T05:41:22;1.77;;;1.13;;
30707;SDS011;17458;48.958;8.284;2023-03-14T05:44:17;4.20;;;1.33;;
30707;SDS011;17458;48.958;8.284;2023-03-14T05:47:31;4.07;;;1.55;;
30707;SDS011;17458;48.958;8.284;2023-03-14T05:50:32;3.85;;;1.80;;
30707;SDS011;17458;48.958;8.284;2023-03-14T05:53:42;4.30;;;1.30;;
30707;SDS011;17458;48.958;8.284;2023-03-14T05:56:32;1.25;;;1.15;;
30707;SDS011;17458;48.958;8.284;2023-03-14T05:59:43;3.60;;;1.40;;
30707;SDS011;17458;48.958;8.284;2023-03-14T06:02:40;3.53;;;1.50;;
30707;SDS011;17458;48.958;8.284;2023-03-14T06:05:35;2.83;;;1.52;;
30707;SDS011;17458;48.958;8.284;2023-03-14T06:08:19;3.92;;;1.38;;
30707;SDS011;17458;48.958;8.284;2023-03-14T06:11:04;1.92;;;1.35;;
30707;SDS011;17458;48.958;8.284;2023-03-14T06:13:48;5.43;;;1.60;;
30707;SDS011;17458;48.958;8.284;2023-03-14T06:16:33;1.33;;;1.10;;
30707;SDS011;17458;48.958;8.284;2023-03-14T06:19:18;1.33;;;1.17;;
30707;SDS011;17458;48.958;8.284;2023-03-14T06:22:02;3.28;;;1.50;;
30707;SDS011;17458;48.958;8.284;2023-03-14T06:24:48;3.17;;;1.85;;
30707;SDS011;17458;48.958;8.284;2023-03-14T06:27:34;6.88;;;1.70;;
30707;SDS011;17458;48.958;8.284;2023-03-14T06:30:18;3.25;;;1.38;;
30707;SDS011;17458;48.958;8.284;2023-03-14T06:33:03;1.95;;;1.00;;
30707;SDS011;17458;48.958;8.284;2023-03-14T06:35:47;2.17;;;1.25;;
30707;SDS011;17458;48.958;8.284;2023-03-14T06:38:31;1.75;;;1.20;;
30707;SDS011;17458;48.958;8.284;2023-03-14T06:41:16;1.88;;;1.10;;
30707;SDS011;17458;48.958;8.284;2023-03-14T06:44:02;2.83;;;1.10;;
30707;SDS011;17458;48.958;8.284;2023-03-14T06:46:47;1.23;;;1.17;;
30707;SDS011;17458;48.958;8.284;2023-03-14T06:49:31;5.10;;;1.27;;
30707;SDS011;17458;48.958;8.284;2023-03-14T06:52:17;2.45;;;1.05;;
30707;SDS011;17458;48.958;8.284;2023-03-14T06:55:01;1.50;;;1.40;;
30707;SDS011;17458;48.958;8.284;2023-03-14T06:57:49;3.35;;;1.45;;
30707;SDS011;17458;48.958;8.284;2023-03-14T07:00:34;6.05;;;1.63;;
30707;SDS011;17458;48.958;8.284;2023-03-14T07:03:19;3.40;;;1.55;;
30707;SDS011;17458;48.958;8.284;2023-03-14T07:06:06;1.65;;;1.30;;
30707;SDS011;17458;48.958;8.284;2023-03-14T07:08:51;3.10;;;1.27;;
30707;SDS011;17458;48.958;8.284;2023-03-14T07:11:35;1.65;;;1.50;;
30707;SDS011;17458;48.958;8.284;2023-03-14T07:14:20;0.82;;;0.82;;
30707;SDS011;17458;48.958;8.284;2023-03-14T07:17:04;1.95;;;1.38;;
30707;SDS011;17458;48.958;8.284;2023-03-14T07:19:48;5.03;;;1.20;;
30707;SDS011;17458;48.958;8.284;2023-03-14T07:22:32;4.53;;;1.30;;
30707;SDS011;17458;48.958;8.284;2023-03-14T07:25:17;4.63;;;1.20;;
30707;SDS011;17458;48.958;8.284;2023-03-14T07:28:01;2.15;;;1.35;;
30707;SDS011;17458;48.958;8.284;2023-03-14T07:30:46;1.98;;;1.30;;
30707;SDS011;17458;48.958;8.284;2023-03-14T07:33:35;2.78;;;1.33;;
30707;SDS011;17458;48.958;8.284;2023-03-14T07:36:20;2.75;;;1.15;;
30707;SDS011;17458;48.958;8.284;2023-03-14T07:39:04;4.35;;;1.08;;
30707;SDS011;17458;48.958;8.284;2023-03-14T07:41:59;4.43;;;1.30;;
30707;SDS011;17458;48.958;8.284;2023-03-14T07:44:43;1.60;;;1.00;;
30707;SDS011;17458;48.958;8.284;2023-03-14T07:47:27;2.47;;;1.30;;
30707;SDS011;17458;48.958;8.284;2023-03-14T07:50:11;2.30;;;1.05;;
30707;SDS011;17458;48.958;8.284;2023-03-14T07:52:56;0.85;;;0.80;;
30707;SDS011;17458;48.958;8.284;2023-03-14T07:55:43;1.45;;;1.15;;
30707;SDS011;17458;48.958;8.284;2023-03-14T07:58:27;2.38;;;1.10;;
30707;SDS011;17458;48.958;8.284;2023-03-14T08:01:12;0.95;;;0.85;;
30707;SDS011;17458;48.958;8.284;2023-03-14T08:03:56;0.88;;;0.88;;
30707;SDS011;17458;48.958;8.284;2023-03-14T08:06:40;1.50;;;1.40;;
30707;SDS011;17458;48.958;8.284;2023-03-14T08:09:24;1.60;;;1.20;;
30707;SDS011;17458;48.958;8.284;2023-03-14T08:12:08;0.80;;;0.80;;
30707;SDS011;17458;48.958;8.284;2023-03-14T08:14:52;0.80;;;0.80;;
30707;SDS011;17458;48.958;8.284;2023-03-14T08:17:37;2.92;;;1.40;;
30707;SDS011;17458;48.958;8.284;2023-03-14T08:20:22;2.78;;;0.75;;
30707;SDS011;17458;48.958;8.284;2023-03-14T08:23:08;1.50;;;1.02;;
30707;SDS011;17458;48.958;8.284;2023-03-14T08:25:52;2.25;;;1.17;;
30707;SDS011;17458;48.958;8.284;2023-03-14T08:28:36;1.02;;;0.90;;
30707;SDS011;17458;48.958;8.284;2023-03-14T08:31:20;1.23;;;1.00;;
30707;SDS011;17458;48.958;8.284;2023-03-14T08:34:04;3.47;;;1.38;;
30707;SDS011;17458;48.958;8.284;2023-03-14T08:36:50;1.15;;;1.00;;
30707;SDS011;17458;48.958;8.284;2023-03-14T08:39:34;1.15;;;0.88;;
30707;SDS011;17458;48.958;8.284;2023-03-14T08:42:18;1.90;;;1.17;;
30707;SDS011;17458;48.958;8.284;2023-03-14T08:45:05;0.85;;;0.85;;
30707;SDS011;17458;48.958;8.284;2023-03-14T08:47:53;4.78;;;2.50;;
30707;SDS011;17458;48.958;8.284;2023-03-14T08:50:38;4.13;;;2.42;;
30707;SDS011;17458;48.958;8.284;2023-03-14T08:53:22;2.85;;;1.88;;
30707;SDS011;17458;48.958;8.284;2023-03-14T08:56:07;2.58;;;2.08;;
30707;SDS011;17458;48.958;8.284;2023-03-14T08:58:53;3.05;;;2.00;;
30707;SDS011;17458;48.958;8.284;2023-03-14T09:01:37;1.45;;;1.00;;
30707;SDS011;17458;48.958;8.284;2023-03-14T09:04:21;0.95;;;0.93;;
30707;SDS011;17458;48.958;8.284;2023-03-14T09:07:06;0.90;;;0.90;;
30707;SDS011;17458;48.958;8.284;2023-03-14T09:09:50;2.95;;;1.30;;
30707;SDS011;17458;48.958;8.284;2023-03-14T09:12:34;1.13;;;1.02;;
30707;SDS011;17458;48.958;8.284;2023-03-14T09:15:19;0.80;;;0.80;;
30707;SDS011;17458;48.958;8.284;2023-03-14T09:18:03;1.13;;;1.02;;
30707;SDS011;17458;48.958;8.284;2023-03-14T09:20:48;0.93;;;0.90;;
30707;SDS011;17458;48.958;8.284;2023-03-14T09:23:33;2.05;;;1.15;;
30707;SDS011;17458;48.958;8.284;2023-03-14T09:26:16;1.48;;;1.25;;
30707;SDS011;17458;48.958;8.284;2023-03-14T09:29:01;2.42;;;1.05;;
30707;SDS011;17458;48.958;8.284;2023-03-14T09:31:45;0.98;;;0.90;;
30707;SDS011;17458;48.958;8.284;2023-03-14T09:34:29;1.08;;;0.90;;
30707;SDS011;17458;48.958;8.284;2023-03-14T09:37:14;0.90;;;0.90;;
30707;SDS011;17458;48.958;8.284;2023-03-14T09:40:00;0.80;;;0.80;;
30707;SDS011;17458;48.958;8.284;2023-03-14T09:42:43;1.98;;;0.90;;
30707;SDS011;17458;48.958;8.284;2023-03-14T09:45:29;1.25;;;1.13;;
30707;SDS011;17458;48.958;8.284;2023-03-14T09:48:19;0.77;;;0.77;;
30707;SDS011;17458;48.958;8.284;2023-03-14T09:51:05;4.32;;;2.35;;
30707;SDS011;17458;48.958;8.284;2023-03-14T09:53:55;0.90;;;0.90;;
30707;SDS011;17458;48.958;8.284;2023-03-14T09:56:39;1.00;;;0.80;;
30707;SDS011;17458;48.958;8.284;2023-03-14T09:59:24;0.95;;;0.95;;
30707;SDS011;17458;48.958;8.284;2023-03-14T10:02:17;2.72;;;1.30;;
30707;SDS011;17458;48.958;8.284;2023-03-14T10:05:07;1.08;;;0.98;;
30707;SDS011;17458;48.958;8.284;2023-03-14T10:07:58;1.00;;;1.00;;
30707;SDS011;17458;48.958;8.284;2023-03-14T10:10:42;1.00;;;1.00;;
30707;SDS011;17458;48.958;8.284;2023-03-14T10:13:29;2.33;;;1.00;;
30707;SDS011;17458;48.958;8.284;2023-03-14T10:16:14;1.38;;;0.98;;
30707;SDS011;17458;48.958;8.284;2023-03-14T10:19:01;1.15;;;1.02;;
30707;SDS011;17458;48.958;8.284;2023-03-14T10:21:50;3.45;;;1.08;;
30707;SDS011;17458;48.958;8.284;2023-03-14T10:24:37;2.88;;;1.00;;
30707;SDS011;17458;48.958;8.284;2023-03-14T10:27:29;0.70;;;0.70;;
30707;SDS011;17458;48.958;8.284;2023-03-14T10:33:29;0.95;;;0.95;;
30707;SDS011;17458;48.958;8.284;2023-03-14T10:36:19;2.35;;;1.70;;
30707;SDS011;17458;48.958;8.284;2023-03-14T10:39:30;0.88;;;0.88;;
30707;SDS011;17458;48.958;8.284;2023-03-14T10:42:26;1.02;;;1.02;;
30707;SDS011;17458;48.958;8.284;2023-03-14T10:45:25;1.10;;;1.10;;
30707;SDS011;17458;48.958;8.284;2023-03-14T10:48:20;1.05;;;0.95;;
30707;SDS011;17458;48.958;8.284;2023-03-14T10:54:04;1.00;;;1.00;;
30707;SDS011;17458;48.958;8.284;2023-03-14T10:56:58;4.05;;;1.42;;
30707;SDS011;17458;48.958;8.284;2023-03-14T10:59:44;1.30;;;1.20;;
30707;SDS011;17458;48.958;8.284;2023-03-14T11:02:31;0.90;;;0.90;;
30707;SDS011;17458;48.958;8.284;2023-03-14T11:08:23;2.45;;;2.00;;
30707;SDS011;17458;48.958;8.284;2023-03-14T11:11:11;2.00;;;1.20;;
30707;SDS011;17458;48.958;8.284;2023-03-14T11:20:22;1.23;;;1.13;;
30707;SDS011;17458;48.958;8.284;2023-03-14T11:23:17;2.17;;;1.02;;
30707;SDS011;17458;48.958;8.284;2023-03-14T11:29:25;0.90;;;0.90;;
30707;SDS011;17458;48.958;8.284;2023-03-14T11:32:21;1.30;;;1.10;;
30707;SDS011;17458;48.958;8.284;2023-03-14T11:35:17;1.20;;;1.20;;
30707;SDS011;17458;48.958;8.284;2023-03-14T11:38:13;2.58;;;1.17;;
30707;SDS011;17458;48.958;8.284;2023-03-14T11:41:24;3.65;;;1.20;;
30707;SDS011;17458;48.958;8.284;2023-03-14T11:44:20;1.50;;;1.40;;
30707;SDS011;17458;48.958;8.284;2023-03-14T11:50:08;1.52;;;1.42;;
30707;SDS011;17458;48.958;8.284;2023-03-14T11:53:04;1.67;;;1.58;;
30707;SDS011;17458;48.958;8.284;2023-03-14T11:56:03;1.60;;;1.50;;
30707;SDS011;17458;48.958;8.284;2023-03-14T11:58:54;1.88;;;1.63;;
30707;SDS011;17458;48.958;8.284;2023-03-14T12:01:49;4.65;;;1.48;;
30707;SDS011;17458;48.958;8.284;2023-03-14T12:04:49;5.85;;;1.67;;
30707;SDS011;17458;48.958;8.284;2023-03-14T12:10:46;2.05;;;1.70;;
30707;SDS011;17458;48.958;8.284;2023-03-14T12:13:34;4.07;;;1.75;;
30707;SDS011;17458;48.958;8.284;2023-03-14T12:19:29;3.42;;;1.90;;
30707;SDS011;17458;48.958;8.284;2023-03-14T12:22:23;3.75;;;1.92;;
30707;SDS011;17458;48.958;8.284;2023-03-14T12:30:39;3.03;;;1.23;;
30707;SDS011;17458;48.958;8.284;2023-03-14T12:33:28;2.70;;;1.92;;
30707;SDS011;17458;48.958;8.284;2023-03-14T12:36:31;2.38;;;1.48;;
30707;SDS011;17458;48.958;8.284;2023-03-14T12:45:15;1.40;;;1.25;;
30707;SDS011;17458;48.958;8.284;2023-03-14T12:48:26;5.30;;;2.05;;
30707;SDS011;17458;48.958;8.284;2023-03-14T12:51:18;1.92;;;1.20;;
30707;SDS011;17458;48.958;8.284;2023-03-14T12:54:06;2.05;;;1.35;;
30707;SDS011;17458;48.958;8.284;2023-03-14T13:00:22;5.05;;;1.25;;
30707;SDS011;17458;48.958;8.284;2023-03-14T13:06:09;2.22;;;1.60;;
30707;SDS011;17458;48.958;8.284;2023-03-14T13:08:55;4.20;;;1.67;;
30707;SDS011;17458;48.958;8.284;2023-03-14T13:11:40;3.88;;;1.38;;
30707;SDS011;17458;48.958;8.284;2023-03-14T13:14:27;3.63;;;1.50;;
30707;SDS011;17458;48.958;8.284;2023-03-14T13:17:15;2.60;;;1.42;;
30707;SDS011;17458;48.958;8.284;2023-03-14T13:20:18;2.33;;;1.50;;
30707;SDS011;17458;48.958;8.284;2023-03-14T13:23:23;3.30;;;1.65;;
30707;SDS011;17458;48.958;8.284;2023-03-14T13:26:13;2.17;;;1.85;;
30707;SDS011;17458;48.958;8.284;2023-03-14T13:29:35;2.72;;;1.60;;
30707;SDS011;17458;48.958;8.284;2023-03-14T13:32:20;2.78;;;1.58;;
30707;SDS011;17458;48.958;8.284;2023-03-14T13:38:16;3.17;;;1.48;;
30707;SDS011;17458;48.958;8.284;2023-03-14T13:41:05;6.40;;;2.53;;
30707;SDS011;17458;48.958;8.284;2023-03-14T13:43:51;1.98;;;1.27;;
30707;SDS011;17458;48.958;8.284;2023-03-14T13:46:40;2.20;;;1.23;;
30707;SDS011;17458;48.958;8.284;2023-03-14T13:49:25;1.42;;;1.33;;
30707;SDS011;17458;48.958;8.284;2023-03-14T13:52:30;1.48;;;1.23;;
30707;SDS011;17458;48.958;8.284;2023-03-14T13:55:17;5.88;;;1.52;;
30707;SDS011;17458;48.958;8.284;2023-03-14T13:58:04;5.78;;;1.40;;
30707;SDS011;17458;48.958;8.284;2023-03-14T14:00:59;3.00;;;1.45;;
30707;SDS011;17458;48.958;8.284;2023-03-14T14:03:49;4.07;;;1.80;;
30707;SDS011;17458;48.958;8.284;2023-03-14T14:06:36;2.67;;;1.35;;
30707;SDS011;17458;48.958;8.284;2023-03-14T14:09:24;2.97;;;1.48;;
30707;SDS011;17458;48.958;8.284;2023-03-14T14:12:16;2.50;;;1.60;;
30707;SDS011;17458;48.958;8.284;2023-03-14T14:15:13;3.28;;;1.73;;
30707;SDS011;17458;48.958;8.284;2023-03-14T14:18:07;9.57;;;2.13;;
30707;SDS011;17458;48.958;8.284;2023-03-14T14:20:54;3.78;;;1.77;;
30707;SDS011;17458;48.958;8.284;2023-03-14T14:23:39;6.20;;;1.80;;
30707;SDS011;17458;48.958;8.284;2023-03-14T14:26:24;7.03;;;1.52;;
30707;SDS011;17458;48.958;8.284;2023-03-14T14:29:24;8.43;;;1.70;;
30707;SDS011;17458;48.958;8.284;2023-03-14T14:32:15;2.30;;;2.10;;
30707;SDS011;17458;48.958;8.284;2023-03-14T14:34:59;5.00;;;1.92;;
30707;SDS011;17458;48.958;8.284;2023-03-14T14:37:44;5.75;;;2.30;;
30707;SDS011;17458;48.958;8.284;2023-03-14T14:40:29;4.40;;;1.80;;
30707;SDS011;17458;48.958;8.284;2023-03-14T14:43:16;5.35;;;1.98;;
30707;SDS011;17458;48.958;8.284;2023-03-14T14:46:05;8.35;;;2.28;;
30707;SDS011;17458;48.958;8.284;2023-03-14T14:48:55;8.20;;;1.50;;
30707;SDS011;17458;48.958;8.284;2023-03-14T14:51:51;5.30;;;1.70;;
30707;SDS011;17458;48.958;8.284;2023-03-14T14:54:45;6.20;;;1.90;;
30707;SDS011;17458;48.958;8.284;2023-03-14T14:57:39;4.60;;;1.60;;
30707;SDS011;17458;48.958;8.284;2023-03-14T15:00:25;4.15;;;1.88;;
30707;SDS011;17458;48.958;8.284;2023-03-14T15:03:12;6.32;;;2.40;;
30707;SDS011;17458;48.958;8.284;2023-03-14T15:06:02;8.90;;;2.20;;
30707;SDS011;17458;48.958;8.284;2023-03-14T15:08:49;7.25;;;1.70;;
30707;SDS011;17458;48.958;8.284;2023-03-14T15:11:34;6.45;;;2.00;;
30707;SDS011;17458;48.958;8.284;2023-03-14T15:14:18;5.20;;;2.35;;
30707;SDS011;17458;48.958;8.284;2023-03-14T15:17:02;6.78;;;3.38;;
30707;SDS011;17458;48.958;8.284;2023-03-14T15:19:50;3.55;;;2.15;;
30707;SDS011;17458;48.958;8.284;2023-03-14T15:22:34;5.75;;;2.60;;
30707;SDS011;17458;48.958;8.284;2023-03-14T15:25:18;8.00;;;3.83;;
30707;SDS011;17458;48.958;8.284;2023-03-14T15:28:03;5.20;;;2.70;;
30707;SDS011;17458;48.958;8.284;2023-03-14T15:30:52;6.28;;;3.67;;
30707;SDS011;17458;48.958;8.284;2023-03-14T15:33:40;4.97;;;2.42;;
30707;SDS011;17458;48.958;8.284;2023-03-14T15:36:26;8.68;;;4.15;;
30707;SDS011;17458;48.958;8.284;2023-03-14T15:39:15;5.13;;;2.00;;
30707;SDS011;17458;48.958;8.284;2023-03-14T15:42:00;7.18;;;2.20;;
30707;SDS011;17458;48.958;8.284;2023-03-14T15:44:45;5.32;;;2.67;;
30707;SDS011;17458;48.958;8.284;2023-03-14T15:47:29;8.35;;;2.20;;
30707;SDS011;17458;48.958;8.284;2023-03-14T15:50:15;13.05;;;2.00;;
30707;SDS011;17458;48.958;8.284;2023-03-14T15:53:00;2.33;;;1.85;;
30707;SDS011;17458;48.958;8.284;2023-03-14T15:55:44;4.50;;;1.98;;
30707;SDS011;17458;48.958;8.284;2023-03-14T15:58:29;4.80;;;2.30;;
30707;SDS011;17458;48.958;8.284;2023-03-14T16:01:13;5.82;;;2.53;;
30707;SDS011;17458;48.958;8.284;2023-03-14T16:03:59;9.43;;;2.22;;
30707;SDS011;17458;48.958;8.284;2023-03-14T16:06:46;7.72;;;2.58;;
30707;SDS011;17458;48.958;8.284;2023-03-14T16:09:30;6.72;;;2.47;;
30707;SDS011;17458;48.958;8.284;2023-03-14T16:12:17;5.50;;;2.17;;
30707;SDS011;17458;48.958;8.284;2023-03-14T16:15:01;5.03;;;2.67;;
30707;SDS011;17458;48.958;8.284;2023-03-14T16:17:47;7.65;;;2.60;;
30707;SDS011;17458;48.958;8.284;2023-03-14T16:20:36;10.25;;;2.80;;
30707;SDS011;17458;48.958;8.284;2023-03-14T16:23:20;3.15;;;2.28;;
30707;SDS011;17458;48.958;8.284;2023-03-14T16:26:06;8.23;;;2.67;;
30707;SDS011;17458;48.958;8.284;2023-03-14T16:28:52;3.85;;;1.58;;
30707;SDS011;17458;48.958;8.284;2023-03-14T16:31:37;4.45;;;2.58;;
30707;SDS011;17458;48.958;8.284;2023-03-14T16:34:25;5.03;;;2.33;;
30707;SDS011;17458;48.958;8.284;2023-03-14T16:37:11;7.35;;;2.55;;
30707;SDS011;17458;48.958;8.284;2023-03-14T16:39:56;2.60;;;1.95;;
30707;SDS011;17458;48.958;8.284;2023-03-14T16:42:40;6.82;;;1.92;;
30707;SDS011;17458;48.958;8.284;2023-03-14T16:45:25;2.28;;;1.75;;
30707;SDS011;17458;48.958;8.284;2023-03-14T16:48:09;2.15;;;1.98;;
30707;SDS011;17458;48.958;8.284;2023-03-14T16:50:53;3.05;;;2.25;;
30707;SDS011;17458;48.958;8.284;2023-03-14T16:53:37;4.10;;;2.65;;
30707;SDS011;17458;48.958;8.284;2023-03-14T16:56:22;5.45;;;2.45;;
30707;SDS011;17458;48.958;8.284;2023-03-14T16:59:06;6.00;;;2.08;;
30707;SDS011;17458;48.958;8.284;2023-03-14T17:01:51;4.65;;;2.03;;
30707;SDS011;17458;48.958;8.284;2023-03-14T17:04:38;1.98;;;1.83;;
30707;SDS011;17458;48.958;8.284;2023-03-14T17:07:24;4.10;;;2.25;;
30707;SDS011;17458;48.958;8.284;2023-03-14T17:10:09;2.85;;;1.92;;
30707;SDS011;17458;48.958;8.284;2023-03-14T17:12:53;2.53;;;2.05;;
30707;SDS011;17458;48.958;8.284;2023-03-14T17:15:38;6.85;;;2.55;;
30707;SDS011;17458;48.958;8.284;2023-03-14T17:18:22;10.50;;;3.05;;
30707;SDS011;17458;48.958;8.284;2023-03-14T17:21:08;5.72;;;2.05;;
30707;SDS011;17458;48.958;8.284;2023-03-14T17:23:52;8.40;;;2.60;;
30707;SDS011;17458;48.958;8.284;2023-03-14T17:26:40;4.38;;;2.33;;
30707;SDS011;17458;48.958;8.284;2023-03-14T17:29:24;6.13;;;2.97;;
30707;SDS011;17458;48.958;8.284;2023-03-14T17:32:08;6.50;;;2.58;;
30707;SDS011;17458;48.958;8.284;2023-03-14T17:34:53;4.65;;;2.03;;
30707;SDS011;17458;48.958;8.284;2023-03-14T17:37:37;6.53;;;2.03;;
30707;SDS011;17458;48.958;8.284;2023-03-14T17:40:21;3.08;;;2.03;;
30707;SDS011;17458;48.958;8.284;2023-03-14T17:43:09;2.30;;;1.80;;
30707;SDS011;17458;48.958;8.284;2023-03-14T17:46:00;7.53;;;2.10;;
30707;SDS011;17458;48.958;8.284;2023-03-14T17:48:49;9.00;;;3.08;;